TimeEDT,TemperatureF,Dew PointF,Humidity,Sea Level PressureIn,VisibilityMPH,Wind Direction,Wind SpeedMPH,Gust SpeedMPH,PrecipitationIn,Events,Conditions,WindDirDegrees,DateUTC
12:15 AM,50.0,46.9,89,30.14,10.0,NNE,3.5,-,N/A,,Clear,20,2013-05-05 04:15:00
12:35 AM,50.0,46.9,89,30.14,10.0,NNE,4.6,-,N/A,,Clear,20,2013-05-05 04:35:00
12:55 AM,50.0,47.1,90,30.14,10.0,North,4.6,-,N/A,,Clear,10,2013-05-05 04:55:00
1:15 AM,49.5,46.6,90,30.14,10.0,NNE,5.8,-,N/A,,Clear,20,2013-05-05 05:15:00
1:35 AM,47.5,44.8,90,30.13,7.0,Calm,Calm,-,N/A,,Clear,0,2013-05-05 05:35:00
1:55 AM,45.9,43.3,91,30.13,7.0,Calm,Calm,-,N/A,,Clear,0,2013-05-05 05:55:00
2:15 AM,45.1,42.8,91,30.12,7.0,Calm,Calm,-,N/A,,Clear,0,2013-05-05 06:15:00
2:35 AM,45.1,42.8,91,30.11,7.0,North,4.6,-,N/A,,Clear,10,2013-05-05 06:35:00
2:55 AM,45.1,42.8,91,30.10,7.0,North,4.6,-,N/A,,Clear,10,2013-05-05 06:55:00
3:35 AM,45.1,42.8,91,30.10,7.0,North,4.6,-,N/A,,Clear,360,2013-05-05 07:35:00
3:55 AM,45.1,42.8,91,30.10,7.0,North,4.6,-,N/A,,Clear,10,2013-05-05 07:55:00
4:15 AM,45.1,42.8,91,30.10,7.0,North,4.6,-,N/A,,Clear,360,2013-05-05 08:15:00
4:35 AM,45.1,42.8,91,30.09,7.0,North,5.8,-,N/A,,Clear,10,2013-05-05 08:35:00
4:55 AM,45.1,42.8,91,30.09,7.0,North,5.8,-,N/A,,Clear,10,2013-05-05 08:55:00
5:15 AM,45.1,42.8,91,30.09,7.0,North,5.8,-,N/A,,Clear,10,2013-05-05 09:15:00
5:35 AM,45.1,42.8,91,30.09,7.0,North,5.8,-,N/A,,Clear,10,2013-05-05 09:35:00
5:55 AM,45.3,42.8,91,30.09,7.0,North,6.9,-,N/A,,Clear,10,2013-05-05 09:55:00
6:15 AM,45.5,43.2,92,30.10,5.0,North,5.8,-,N/A,,Clear,10,2013-05-05 10:15:00
6:55 AM,47.5,45.0,91,30.11,5.0,North,5.8,-,N/A,,Mostly Cloudy,10,2013-05-05 10:55:00
7:15 AM,49.6,47.1,91,30.12,7.0,NNE,6.9,-,N/A,,Scattered Clouds,20,2013-05-05 11:15:00
7:35 AM,50.0,47.3,90,30.11,7.0,North,6.9,-,N/A,,Scattered Clouds,10,2013-05-05 11:35:00
7:55 AM,50.0,47.3,90,30.11,7.0,NNE,10.4,-,N/A,,Scattered Clouds,20,2013-05-05 11:55:00
8:15 AM,50.7,47.5,89,30.11,7.0,NNE,8.1,-,N/A,,Scattered Clouds,30,2013-05-05 12:15:00
8:35 AM,52.7,48.7,86,30.12,10.0,NNE,8.1,-,N/A,,Scattered Clouds,30,2013-05-05 12:35:00
8:55 AM,52.7,48.2,85,30.12,10.0,NNE,9.2,-,N/A,,Mostly Cloudy,20,2013-05-05 12:55:00
9:15 AM,55.0,50.2,84,30.12,10.0,NNE,6.9,16.1,N/A,,Overcast,30,2013-05-05 13:15:00
9:35 AM,56.3,50.7,82,30.12,10.0,NE,9.2,-,N/A,,Overcast,50,2013-05-05 13:35:00
9:55 AM,57.4,51.1,79,30.11,10.0,ENE,10.4,16.1,N/A,,Overcast,70,2013-05-05 13:55:00
10:15 AM,57.6,50.9,78,30.12,10.0,ENE,8.1,16.1,N/A,,Scattered Clouds,60,2013-05-05 14:15:00
10:35 AM,57.9,51.3,78,30.11,10.0,NNE,8.1,-,N/A,,Mostly Cloudy,30,2013-05-05 14:35:00
10:55 AM,58.3,51.1,77,30.12,10.0,NNE,11.5,16.1,N/A,,Mostly Cloudy,30,2013-05-05 14:55:00
11:15 AM,60.1,52.3,76,30.12,10.0,NNE,10.4,17.3,N/A,,Mostly Cloudy,30,2013-05-05 15:15:00
11:35 AM,60.1,52.3,76,30.12,10.0,NE,9.2,-,N/A,,Mostly Cloudy,40,2013-05-05 15:35:00
11:55 AM,60.1,52.2,75,30.12,10.0,NE,8.1,-,N/A,,Overcast,50,2013-05-05 15:55:00
12:15 PM,60.1,52.2,75,30.11,10.0,NE,9.2,18.4,N/A,,Overcast,50,2013-05-05 16:15:00
12:35 PM,60.1,52.0,75,30.11,10.0,ENE,11.5,17.3,N/A,,Overcast,60,2013-05-05 16:35:00
12:55 PM,60.1,52.7,77,30.11,10.0,NE,8.1,-,N/A,,Overcast,50,2013-05-05 16:55:00
1:15 PM,58.5,52.2,80,30.11,5.0,ENE,8.1,-,N/A,,Haze,70,2013-05-05 17:15:00
1:35 PM,60.1,53.8,80,30.11,5.0,ENE,6.9,-,N/A,Rain,Rain,70,2013-05-05 17:35:00
1:55 PM,57.6,52.5,83,30.11,5.0,ENE,6.9,-,N/A,,Drizzle,60,2013-05-05 17:55:00
2:15 PM,57.6,53.6,87,30.11,3.0,ENE,4.6,-,N/A,Rain,Rain,60,2013-05-05 18:15:00
2:35 PM,57.4,53.8,88,30.11,4.0,NNE,6.9,-,N/A,,Light Drizzle,30,2013-05-05 18:35:00
2:55 PM,57.6,53.6,87,30.10,7.0,NNE,9.2,-,N/A,,Overcast,30,2013-05-05 18:55:00
3:15 PM,58.1,53.1,83,30.09,4.0,NE,8.1,16.1,N/A,Rain,Rain,40,2013-05-05 19:15:00
3:35 PM,59.5,54.9,84,30.09,5.0,NE,8.1,-,N/A,,Haze,50,2013-05-05 19:35:00
3:55 PM,60.1,54.0,80,30.08,7.0,ENE,4.6,-,N/A,,Light Drizzle,60,2013-05-05 19:55:00
4:15 PM,62.6,54.9,76,30.08,10.0,NE,8.1,17.3,N/A,,Scattered Clouds,40,2013-05-05 20:15:00
4:35 PM,64.8,56.1,74,30.08,10.0,ENE,9.2,-,N/A,,Scattered Clouds,60,2013-05-05 20:35:00
4:55 PM,62.6,54.0,73,30.09,10.0,ENE,6.9,-,N/A,,Mostly Cloudy,60,2013-05-05 20:55:00
5:15 PM,60.1,53.1,78,30.09,7.0,NE,6.9,-,N/A,Rain,Light Rain,40,2013-05-05 21:15:00
5:35 PM,60.1,52.7,77,30.08,10.0,NE,6.9,-,N/A,,Overcast,50,2013-05-05 21:35:00
5:55 PM,60.1,52.7,77,30.08,10.0,NE,5.8,-,N/A,,Overcast,50,2013-05-05 21:55:00
6:15 PM,60.1,53.6,79,30.08,10.0,ENE,9.2,-,N/A,,Overcast,60,2013-05-05 22:15:00
6:35 PM,57.6,52.7,84,30.08,4.0,NE,6.9,-,N/A,,Drizzle,50,2013-05-05 22:35:00
6:55 PM,57.6,52.9,84,30.07,7.0,NNE,8.1,-,N/A,,Light Drizzle,30,2013-05-05 22:55:00
7:15 PM,56.8,51.8,83,30.07,10.0,NNE,8.1,-,N/A,,Overcast,30,2013-05-05 23:15:00
7:35 PM,56.3,51.4,84,30.07,7.0,NE,6.9,-,N/A,,Overcast,40,2013-05-05 23:35:00
7:55 PM,56.3,51.8,85,30.07,7.0,NE,8.1,16.1,N/A,,Overcast,40,2013-05-05 23:55:00
8:15 PM,56.3,51.8,85,30.07,10.0,NE,8.1,-,N/A,,Overcast,40,2013-05-06 00:15:00
8:35 PM,55.9,51.4,85,30.08,10.0,NE,9.2,-,N/A,,Overcast,50,2013-05-06 00:35:00
8:55 PM,55.0,50.9,86,30.08,10.0,ENE,8.1,-,N/A,,Overcast,60,2013-05-06 00:55:00
9:15 PM,55.0,50.9,86,30.08,7.0,NE,8.1,-,N/A,,Overcast,40,2013-05-06 01:15:00
9:35 PM,55.0,51.1,86,30.09,7.0,NNE,4.6,-,N/A,,Overcast,30,2013-05-06 01:35:00
9:55 PM,55.0,51.1,86,30.09,7.0,NE,5.8,-,N/A,,Overcast,40,2013-05-06 01:55:00
10:15 PM,55.0,51.1,86,30.09,7.0,NNE,6.9,-,N/A,,Overcast,20,2013-05-06 02:15:00
10:35 PM,55.0,51.3,87,30.09,7.0,NE,5.8,-,N/A,,Overcast,40,2013-05-06 02:35:00
10:55 PM,55.0,51.3,87,30.08,7.0,NNE,4.6,-,N/A,,Overcast,30,2013-05-06 02:55:00
11:15 PM,55.0,51.3,87,30.08,7.0,NE,5.8,-,N/A,,Overcast,40,2013-05-06 03:15:00
11:35 PM,55.0,51.3,87,30.08,7.0,NE,4.6,-,N/A,,Overcast,40,2013-05-06 03:35:00
11:55 PM,55.0,51.4,88,30.08,7.0,NNE,5.8,-,N/A,,Overcast,30,2013-05-06 03:55:00